METAR Data
IDs: Format: Raw Decoded Include TAF

Data at: 0915 UTC 10 Dec 2022

METAR for:KBTP (Butler Cnty/Scholter, PA, US)
Text:KBTP 100856Z AUTO 07008KT 9SM -SN OVC047 M01/M02 A3019 RMK AO2 UPE23SNB04E19B23 SLP241 P0000 60000 T10061022 58001 FZRANO TSNO
Temperature: -0.6°C ( 31°F)
Dewpoint: -2.2°C ( 28°F) [RH = 89%]
Pressure (altimeter):30.19 inches Hg (1022.4 mb) [Sea level pressure: 1024.1 mb]
Winds:from the ENE (70 degrees) at 9 MPH (8 knots; 4.1 m/s)
Visibility: 9 sm ( 14 km)
Ceiling:4700 feet AGL
Clouds: overcast cloud deck at 4700 feet AGL
Weather:-SN (light snow)
QC Flag:automated observation with no human augmentation
Text:KBTP 100756Z AUTO 07011KT 10SM UP BKN049 OVC065 M01/M03 A3019 RMK AO2 UPB47 SLP242 P0000 T10061028 FZRANO TSNO
Temperature: -0.6°C ( 31°F)
Dewpoint: -2.8°C ( 27°F) [RH = 85%]
Pressure (altimeter):30.19 inches Hg (1022.4 mb) [Sea level pressure: 1024.2 mb]
Winds:from the ENE (70 degrees) at 13 MPH (11 knots; 5.7 m/s)
Visibility:10 or more sm (16+ km)
Ceiling:4900 feet AGL
Clouds: broken clouds at 4900 feet AGL, overcast cloud deck at 6500 feet AGL
Weather:UP (unknown precipitation)
QC Flag:automated observation with no human augmentation